sensor_id;sensor_type;location;lat;lon;timestamp;P1;durP1;ratioP1;P2;durP2;ratioP2
5245;SDS011;54412;51.206;6.888;2023-04-24T00:00:55;0.80;;;0.80;;
5245;SDS011;54412;51.206;6.888;2023-04-24T00:03:21;4.47;;;1.10;;
5245;SDS011;54412;51.206;6.888;2023-04-24T00:05:48;1.90;;;0.87;;
5245;SDS011;54412;51.206;6.888;2023-04-24T00:08:14;0.90;;;0.90;;
5245;SDS011;54412;51.206;6.888;2023-04-24T00:10:41;1.27;;;1.00;;
5245;SDS011;54412;51.206;6.888;2023-04-24T00:13:06;4.07;;;0.97;;
5245;SDS011;54412;51.206;6.888;2023-04-24T00:15:32;0.90;;;0.90;;
5245;SDS011;54412;51.206;6.888;2023-04-24T00:17:58;0.80;;;0.80;;
5245;SDS011;54412;51.206;6.888;2023-04-24T00:20:24;1.83;;;0.90;;
5245;SDS011;54412;51.206;6.888;2023-04-24T00:22:49;1.63;;;1.10;;
5245;SDS011;54412;51.206;6.888;2023-04-24T00:25:15;2.93;;;1.27;;
5245;SDS011;54412;51.206;6.888;2023-04-24T00:27:41;2.80;;;1.40;;
5245;SDS011;54412;51.206;6.888;2023-04-24T00:30:06;1.53;;;1.43;;
5245;SDS011;54412;51.206;6.888;2023-04-24T00:32:33;1.90;;;1.20;;
5245;SDS011;54412;51.206;6.888;2023-04-24T00:34:58;1.30;;;1.20;;
5245;SDS011;54412;51.206;6.888;2023-04-24T00:37:24;1.63;;;1.10;;
5245;SDS011;54412;51.206;6.888;2023-04-24T00:39:50;2.30;;;1.37;;
5245;SDS011;54412;51.206;6.888;2023-04-24T00:42:15;2.23;;;1.17;;
5245;SDS011;54412;51.206;6.888;2023-04-24T00:44:41;2.57;;;1.27;;
5245;SDS011;54412;51.206;6.888;2023-04-24T00:47:07;3.40;;;1.70;;
5245;SDS011;54412;51.206;6.888;2023-04-24T00:49:33;1.37;;;1.27;;
5245;SDS011;54412;51.206;6.888;2023-04-24T00:51:58;1.50;;;1.40;;
5245;SDS011;54412;51.206;6.888;2023-04-24T00:54:24;2.90;;;1.80;;
5245;SDS011;54412;51.206;6.888;2023-04-24T00:56:50;1.97;;;1.87;;
5245;SDS011;54412;51.206;6.888;2023-04-24T00:59:16;1.20;;;1.20;;
5245;SDS011;54412;51.206;6.888;2023-04-24T01:01:43;2.87;;;1.70;;
5245;SDS011;54412;51.206;6.888;2023-04-24T01:04:11;1.33;;;1.23;;
5245;SDS011;54412;51.206;6.888;2023-04-24T01:06:40;2.00;;;1.30;;
5245;SDS011;54412;51.206;6.888;2023-04-24T01:09:09;3.63;;;1.40;;
5245;SDS011;54412;51.206;6.888;2023-04-24T01:11:37;1.27;;;1.17;;
5245;SDS011;54412;51.206;6.888;2023-04-24T01:14:03;1.37;;;1.27;;
5245;SDS011;54412;51.206;6.888;2023-04-24T01:16:29;2.53;;;1.20;;
5245;SDS011;54412;51.206;6.888;2023-04-24T01:18:55;1.60;;;1.50;;
5245;SDS011;54412;51.206;6.888;2023-04-24T01:21:20;1.50;;;1.40;;
5245;SDS011;54412;51.206;6.888;2023-04-24T01:23:48;1.83;;;1.60;;
5245;SDS011;54412;51.206;6.888;2023-04-24T01:26:15;3.63;;;2.80;;
5245;SDS011;54412;51.206;6.888;2023-04-24T01:28:42;7.53;;;2.80;;
5245;SDS011;54412;51.206;6.888;2023-04-24T01:31:08;4.53;;;2.30;;
5245;SDS011;54412;51.206;6.888;2023-04-24T01:33:33;4.23;;;3.00;;
5245;SDS011;54412;51.206;6.888;2023-04-24T01:36:00;3.20;;;2.97;;
5245;SDS011;54412;51.206;6.888;2023-04-24T01:38:26;8.60;;;3.47;;
5245;SDS011;54412;51.206;6.888;2023-04-24T01:40:52;3.83;;;3.47;;
5245;SDS011;54412;51.206;6.888;2023-04-24T01:43:18;3.80;;;3.60;;
5245;SDS011;54412;51.206;6.888;2023-04-24T01:45:44;5.33;;;3.83;;
5245;SDS011;54412;51.206;6.888;2023-04-24T01:48:11;4.40;;;3.53;;
5245;SDS011;54412;51.206;6.888;2023-04-24T01:50:38;7.33;;;4.80;;
5245;SDS011;54412;51.206;6.888;2023-04-24T01:53:04;3.90;;;3.00;;
5245;SDS011;54412;51.206;6.888;2023-04-24T01:55:30;7.07;;;3.83;;
5245;SDS011;54412;51.206;6.888;2023-04-24T01:57:56;3.73;;;3.40;;
5245;SDS011;54412;51.206;6.888;2023-04-24T02:00:24;4.23;;;3.90;;
5245;SDS011;54412;51.206;6.888;2023-04-24T02:02:50;6.30;;;3.67;;
5245;SDS011;54412;51.206;6.888;2023-04-24T02:05:16;3.90;;;3.57;;
5245;SDS011;54412;51.206;6.888;2023-04-24T02:07:41;4.93;;;4.00;;
5245;SDS011;54412;51.206;6.888;2023-04-24T02:10:07;4.63;;;4.23;;
5245;SDS011;54412;51.206;6.888;2023-04-24T02:12:34;4.07;;;3.77;;
5245;SDS011;54412;51.206;6.888;2023-04-24T02:15:00;6.33;;;4.67;;
5245;SDS011;54412;51.206;6.888;2023-04-24T02:17:26;4.37;;;3.90;;
5245;SDS011;54412;51.206;6.888;2023-04-24T02:19:51;4.90;;;4.40;;
5245;SDS011;54412;51.206;6.888;2023-04-24T02:22:17;4.83;;;4.40;;
5245;SDS011;54412;51.206;6.888;2023-04-24T02:24:43;7.30;;;4.77;;
5245;SDS011;54412;51.206;6.888;2023-04-24T02:27:08;5.60;;;4.67;;
5245;SDS011;54412;51.206;6.888;2023-04-24T02:29:34;6.90;;;4.93;;
5245;SDS011;54412;51.206;6.888;2023-04-24T02:32:00;8.50;;;5.80;;
5245;SDS011;54412;51.206;6.888;2023-04-24T02:34:25;6.60;;;5.87;;
5245;SDS011;54412;51.206;6.888;2023-04-24T02:36:51;8.23;;;5.43;;
5245;SDS011;54412;51.206;6.888;2023-04-24T02:39:18;9.80;;;6.50;;
5245;SDS011;54412;51.206;6.888;2023-04-24T02:41:44;9.77;;;7.07;;
5245;SDS011;54412;51.206;6.888;2023-04-24T02:44:10;6.97;;;6.23;;
5245;SDS011;54412;51.206;6.888;2023-04-24T02:46:36;8.40;;;7.27;;
5245;SDS011;54412;51.206;6.888;2023-04-24T02:49:02;7.43;;;6.70;;
5245;SDS011;54412;51.206;6.888;2023-04-24T02:51:28;7.20;;;6.33;;
5245;SDS011;54412;51.206;6.888;2023-04-24T02:53:54;7.70;;;6.20;;
5245;SDS011;54412;51.206;6.888;2023-04-24T02:56:20;14.33;;;7.33;;
5245;SDS011;54412;51.206;6.888;2023-04-24T02:58:46;10.83;;;7.53;;
5245;SDS011;54412;51.206;6.888;2023-04-24T03:01:11;8.40;;;7.53;;
5245;SDS011;54412;51.206;6.888;2023-04-24T03:03:37;8.80;;;6.23;;
5245;SDS011;54412;51.206;6.888;2023-04-24T03:06:04;12.20;;;7.67;;
5245;SDS011;54412;51.206;6.888;2023-04-24T03:08:32;10.03;;;7.50;;
5245;SDS011;54412;51.206;6.888;2023-04-24T03:10:58;11.50;;;7.30;;
5245;SDS011;54412;51.206;6.888;2023-04-24T03:13:24;9.50;;;7.50;;
5245;SDS011;54412;51.206;6.888;2023-04-24T03:15:50;12.37;;;6.60;;
5245;SDS011;54412;51.206;6.888;2023-04-24T03:18:16;12.23;;;7.10;;
5245;SDS011;54412;51.206;6.888;2023-04-24T03:20:42;12.50;;;7.60;;
5245;SDS011;54412;51.206;6.888;2023-04-24T03:23:11;11.73;;;7.20;;
5245;SDS011;54412;51.206;6.888;2023-04-24T03:25:36;9.47;;;7.60;;
5245;SDS011;54412;51.206;6.888;2023-04-24T03:28:02;11.47;;;8.07;;
5245;SDS011;54412;51.206;6.888;2023-04-24T03:30:28;10.90;;;7.20;;
5245;SDS011;54412;51.206;6.888;2023-04-24T03:32:53;7.43;;;6.73;;
5245;SDS011;54412;51.206;6.888;2023-04-24T03:35:19;7.70;;;6.73;;
5245;SDS011;54412;51.206;6.888;2023-04-24T03:37:46;8.13;;;7.10;;
5245;SDS011;54412;51.206;6.888;2023-04-24T03:40:12;9.83;;;7.30;;
5245;SDS011;54412;51.206;6.888;2023-04-24T03:42:38;8.43;;;6.67;;
5245;SDS011;54412;51.206;6.888;2023-04-24T03:45:04;14.03;;;7.40;;
5245;SDS011;54412;51.206;6.888;2023-04-24T03:47:30;10.97;;;7.13;;
5245;SDS011;54412;51.206;6.888;2023-04-24T03:49:56;12.23;;;7.83;;
5245;SDS011;54412;51.206;6.888;2023-04-24T03:52:22;14.00;;;6.70;;
5245;SDS011;54412;51.206;6.888;2023-04-24T03:54:47;11.60;;;6.50;;
5245;SDS011;54412;51.206;6.888;2023-04-24T03:57:13;12.23;;;6.87;;
5245;SDS011;54412;51.206;6.888;2023-04-24T03:59:39;10.30;;;6.90;;
5245;SDS011;54412;51.206;6.888;2023-04-24T04:02:04;8.10;;;6.57;;
5245;SDS011;54412;51.206;6.888;2023-04-24T04:04:30;12.10;;;7.50;;
5245;SDS011;54412;51.206;6.888;2023-04-24T04:06:56;8.37;;;6.90;;
5245;SDS011;54412;51.206;6.888;2023-04-24T04:09:21;9.70;;;7.50;;
5245;SDS011;54412;51.206;6.888;2023-04-24T04:11:47;12.50;;;7.47;;
5245;SDS011;54412;51.206;6.888;2023-04-24T04:14:13;12.10;;;8.13;;
5245;SDS011;54412;51.206;6.888;2023-04-24T04:16:38;12.10;;;7.93;;
5245;SDS011;54412;51.206;6.888;2023-04-24T04:19:04;10.33;;;8.23;;
5245;SDS011;54412;51.206;6.888;2023-04-24T04:21:30;11.73;;;6.97;;
5245;SDS011;54412;51.206;6.888;2023-04-24T04:23:57;8.60;;;7.40;;
5245;SDS011;54412;51.206;6.888;2023-04-24T04:26:22;10.20;;;7.40;;
5245;SDS011;54412;51.206;6.888;2023-04-24T04:28:50;9.90;;;7.50;;
5245;SDS011;54412;51.206;6.888;2023-04-24T04:31:17;7.90;;;6.70;;
5245;SDS011;54412;51.206;6.888;2023-04-24T04:33:48;9.87;;;6.60;;
5245;SDS011;54412;51.206;6.888;2023-04-24T04:36:13;7.60;;;6.67;;
5245;SDS011;54412;51.206;6.888;2023-04-24T04:38:39;12.37;;;6.90;;
5245;SDS011;54412;51.206;6.888;2023-04-24T04:41:05;11.80;;;7.40;;
5245;SDS011;54412;51.206;6.888;2023-04-24T04:43:32;10.00;;;7.33;;
5245;SDS011;54412;51.206;6.888;2023-04-24T04:45:59;10.73;;;7.60;;
5245;SDS011;54412;51.206;6.888;2023-04-24T04:48:25;14.93;;;7.63;;
5245;SDS011;54412;51.206;6.888;2023-04-24T04:50:52;8.83;;;6.90;;
5245;SDS011;54412;51.206;6.888;2023-04-24T04:53:17;8.40;;;6.70;;
5245;SDS011;54412;51.206;6.888;2023-04-24T04:55:43;11.30;;;7.03;;
5245;SDS011;54412;51.206;6.888;2023-04-24T04:58:09;10.17;;;7.50;;
5245;SDS011;54412;51.206;6.888;2023-04-24T05:00:35;8.73;;;6.53;;
5245;SDS011;54412;51.206;6.888;2023-04-24T05:03:02;11.30;;;7.10;;
5245;SDS011;54412;51.206;6.888;2023-04-24T05:05:28;9.30;;;7.50;;
5245;SDS011;54412;51.206;6.888;2023-04-24T05:07:54;8.67;;;6.47;;
5245;SDS011;54412;51.206;6.888;2023-04-24T05:10:20;7.17;;;5.93;;
5245;SDS011;54412;51.206;6.888;2023-04-24T05:12:46;7.17;;;6.47;;
5245;SDS011;54412;51.206;6.888;2023-04-24T05:15:11;6.70;;;6.00;;
5245;SDS011;54412;51.206;6.888;2023-04-24T05:17:37;6.20;;;5.60;;
5245;SDS011;54412;51.206;6.888;2023-04-24T05:20:04;9.47;;;5.90;;
5245;SDS011;54412;51.206;6.888;2023-04-24T05:22:31;6.10;;;5.40;;
5245;SDS011;54412;51.206;6.888;2023-04-24T05:24:57;6.40;;;5.43;;
5245;SDS011;54412;51.206;6.888;2023-04-24T05:27:23;6.13;;;5.47;;
5245;SDS011;54412;51.206;6.888;2023-04-24T05:29:50;6.17;;;5.00;;
5245;SDS011;54412;51.206;6.888;2023-04-24T05:32:16;14.57;;;5.60;;
5245;SDS011;54412;51.206;6.888;2023-04-24T05:34:42;7.73;;;5.40;;
5245;SDS011;54412;51.206;6.888;2023-04-24T05:37:08;9.50;;;5.50;;
5245;SDS011;54412;51.206;6.888;2023-04-24T05:39:35;6.67;;;5.20;;
5245;SDS011;54412;51.206;6.888;2023-04-24T05:42:01;11.00;;;5.70;;
5245;SDS011;54412;51.206;6.888;2023-04-24T05:44:29;9.50;;;6.47;;
5245;SDS011;54412;51.206;6.888;2023-04-24T05:46:55;11.13;;;5.67;;
5245;SDS011;54412;51.206;6.888;2023-04-24T05:49:21;7.87;;;6.80;;
5245;SDS011;54412;51.206;6.888;2023-04-24T05:51:47;7.53;;;6.33;;
5245;SDS011;54412;51.206;6.888;2023-04-24T05:54:13;10.70;;;6.70;;
5245;SDS011;54412;51.206;6.888;2023-04-24T05:56:39;12.00;;;6.73;;
5245;SDS011;54412;51.206;6.888;2023-04-24T05:59:05;9.43;;;7.07;;
5245;SDS011;54412;51.206;6.888;2023-04-24T06:01:32;7.30;;;6.70;;
5245;SDS011;54412;51.206;6.888;2023-04-24T06:03:58;8.57;;;6.20;;
5245;SDS011;54412;51.206;6.888;2023-04-24T06:06:23;9.93;;;6.37;;
5245;SDS011;54412;51.206;6.888;2023-04-24T06:08:50;6.90;;;5.97;;
5245;SDS011;54412;51.206;6.888;2023-04-24T06:11:16;7.37;;;6.57;;
5245;SDS011;54412;51.206;6.888;2023-04-24T06:13:42;6.93;;;6.33;;
5245;SDS011;54412;51.206;6.888;2023-04-24T06:16:08;6.57;;;5.90;;
5245;SDS011;54412;51.206;6.888;2023-04-24T06:18:33;6.23;;;5.40;;
5245;SDS011;54412;51.206;6.888;2023-04-24T06:20:59;5.70;;;5.20;;
5245;SDS011;54412;51.206;6.888;2023-04-24T06:23:25;7.10;;;6.40;;
5245;SDS011;54412;51.206;6.888;2023-04-24T06:25:50;5.67;;;5.20;;
5245;SDS011;54412;51.206;6.888;2023-04-24T06:28:16;6.60;;;5.50;;
5245;SDS011;54412;51.206;6.888;2023-04-24T06:30:42;8.00;;;6.00;;
5245;SDS011;54412;51.206;6.888;2023-04-24T06:33:08;6.77;;;5.00;;
5245;SDS011;54412;51.206;6.888;2023-04-24T06:35:35;5.33;;;4.93;;
5245;SDS011;54412;51.206;6.888;2023-04-24T06:38:01;8.53;;;4.93;;
5245;SDS011;54412;51.206;6.888;2023-04-24T06:40:27;6.37;;;5.50;;
5245;SDS011;54412;51.206;6.888;2023-04-24T06:42:52;4.53;;;4.13;;
5245;SDS011;54412;51.206;6.888;2023-04-24T06:45:18;5.67;;;5.17;;
5245;SDS011;54412;51.206;6.888;2023-04-24T06:47:44;4.10;;;3.80;;
5245;SDS011;54412;51.206;6.888;2023-04-24T06:50:09;5.87;;;4.63;;
5245;SDS011;54412;51.206;6.888;2023-04-24T06:52:36;5.03;;;4.10;;
5245;SDS011;54412;51.206;6.888;2023-04-24T06:55:02;4.60;;;3.30;;
5245;SDS011;54412;51.206;6.888;2023-04-24T06:57:29;4.00;;;3.70;;
5245;SDS011;54412;51.206;6.888;2023-04-24T06:59:55;5.00;;;3.80;;
5245;SDS011;54412;51.206;6.888;2023-04-24T07:02:21;4.80;;;3.20;;
5245;SDS011;54412;51.206;6.888;2023-04-24T07:04:47;4.33;;;3.37;;
5245;SDS011;54412;51.206;6.888;2023-04-24T07:07:13;3.90;;;3.50;;
5245;SDS011;54412;51.206;6.888;2023-04-24T07:09:39;6.47;;;3.80;;
5245;SDS011;54412;51.206;6.888;2023-04-24T07:12:10;4.03;;;3.70;;
5245;SDS011;54412;51.206;6.888;2023-04-24T07:14:37;6.23;;;4.80;;
5245;SDS011;54412;51.206;6.888;2023-04-24T07:17:03;5.27;;;4.10;;
5245;SDS011;54412;51.206;6.888;2023-04-24T07:19:30;3.93;;;3.60;;
5245;SDS011;54412;51.206;6.888;2023-04-24T07:21:56;3.83;;;3.53;;
5245;SDS011;54412;51.206;6.888;2023-04-24T07:24:23;3.80;;;3.47;;
5245;SDS011;54412;51.206;6.888;2023-04-24T07:26:50;5.47;;;3.10;;
5245;SDS011;54412;51.206;6.888;2023-04-24T07:29:17;4.10;;;2.60;;
5245;SDS011;54412;51.206;6.888;2023-04-24T07:31:44;2.63;;;2.20;;
5245;SDS011;54412;51.206;6.888;2023-04-24T07:34:10;2.90;;;2.70;;
5245;SDS011;54412;51.206;6.888;2023-04-24T07:36:35;3.17;;;2.97;;
5245;SDS011;54412;51.206;6.888;2023-04-24T07:39:03;2.90;;;2.60;;
5245;SDS011;54412;51.206;6.888;2023-04-24T07:41:29;1.40;;;1.30;;
5245;SDS011;54412;51.206;6.888;2023-04-24T07:43:55;1.47;;;1.37;;
5245;SDS011;54412;51.206;6.888;2023-04-24T07:46:21;3.00;;;1.10;;
5245;SDS011;54412;51.206;6.888;2023-04-24T07:48:48;1.17;;;1.07;;
5245;SDS011;54412;51.206;6.888;2023-04-24T07:51:14;1.93;;;0.80;;
5245;SDS011;54412;51.206;6.888;2023-04-24T07:53:40;0.70;;;0.70;;
5245;SDS011;54412;51.206;6.888;2023-04-24T07:56:06;0.90;;;0.90;;
5245;SDS011;54412;51.206;6.888;2023-04-24T07:58:32;2.93;;;0.70;;
5245;SDS011;54412;51.206;6.888;2023-04-24T08:00:59;0.70;;;0.70;;
5245;SDS011;54412;51.206;6.888;2023-04-24T08:03:25;0.67;;;0.67;;
5245;SDS011;54412;51.206;6.888;2023-04-24T08:05:50;0.83;;;0.83;;
5245;SDS011;54412;51.206;6.888;2023-04-24T08:08:16;2.40;;;0.73;;
5245;SDS011;54412;51.206;6.888;2023-04-24T08:10:42;0.90;;;0.90;;
5245;SDS011;54412;51.206;6.888;2023-04-24T08:13:08;2.20;;;0.70;;
5245;SDS011;54412;51.206;6.888;2023-04-24T08:15:36;1.03;;;0.73;;
5245;SDS011;54412;51.206;6.888;2023-04-24T08:18:02;1.10;;;0.63;;
5245;SDS011;54412;51.206;6.888;2023-04-24T08:20:27;1.07;;;0.70;;
5245;SDS011;54412;51.206;6.888;2023-04-24T08:22:53;0.70;;;0.70;;
5245;SDS011;54412;51.206;6.888;2023-04-24T08:25:20;0.90;;;0.90;;
5245;SDS011;54412;51.206;6.888;2023-04-24T08:27:47;1.60;;;1.50;;
5245;SDS011;54412;51.206;6.888;2023-04-24T08:30:13;2.37;;;1.60;;
5245;SDS011;54412;51.206;6.888;2023-04-24T08:32:39;2.97;;;2.10;;
5245;SDS011;54412;51.206;6.888;2023-04-24T08:35:05;4.97;;;2.90;;
5245;SDS011;54412;51.206;6.888;2023-04-24T08:37:34;2.87;;;2.40;;
5245;SDS011;54412;51.206;6.888;2023-04-24T08:40:00;2.33;;;2.13;;
5245;SDS011;54412;51.206;6.888;2023-04-24T08:42:38;2.10;;;1.90;;
5245;SDS011;54412;51.206;6.888;2023-04-24T08:45:09;2.60;;;2.40;;
5245;SDS011;54412;51.206;6.888;2023-04-24T08:47:37;2.63;;;2.33;;
5245;SDS011;54412;51.206;6.888;2023-04-24T08:50:05;2.33;;;2.23;;
5245;SDS011;54412;51.206;6.888;2023-04-24T08:52:33;3.13;;;2.73;;
5245;SDS011;54412;51.206;6.888;2023-04-24T08:55:00;4.50;;;2.70;;
5245;SDS011;54412;51.206;6.888;2023-04-24T08:57:27;13.23;;;2.70;;
5245;SDS011;54412;51.206;6.888;2023-04-24T08:59:54;2.80;;;2.60;;
5245;SDS011;54412;51.206;6.888;2023-04-24T09:02:22;2.53;;;2.33;;
5245;SDS011;54412;51.206;6.888;2023-04-24T09:04:49;4.40;;;2.90;;
5245;SDS011;54412;51.206;6.888;2023-04-24T09:07:17;3.60;;;3.30;;
5245;SDS011;54412;51.206;6.888;2023-04-24T09:09:44;5.43;;;2.93;;
5245;SDS011;54412;51.206;6.888;2023-04-24T09:12:10;2.43;;;2.23;;
5245;SDS011;54412;51.206;6.888;2023-04-24T09:14:37;3.00;;;2.13;;
5245;SDS011;54412;51.206;6.888;2023-04-24T09:17:07;2.20;;;2.10;;
5245;SDS011;54412;51.206;6.888;2023-04-24T09:19:33;1.90;;;1.80;;
5245;SDS011;54412;51.206;6.888;2023-04-24T09:21:58;2.40;;;2.30;;
5245;SDS011;54412;51.206;6.888;2023-04-24T09:24:24;2.10;;;1.90;;
5245;SDS011;54412;51.206;6.888;2023-04-24T09:26:59;4.10;;;2.17;;
5245;SDS011;54412;51.206;6.888;2023-04-24T09:29:26;3.20;;;2.60;;
5245;SDS011;54412;51.206;6.888;2023-04-24T09:31:53;2.67;;;2.47;;
5245;SDS011;54412;51.206;6.888;2023-04-24T09:34:22;4.93;;;3.17;;
5245;SDS011;54412;51.206;6.888;2023-04-24T09:36:50;3.00;;;2.80;;
5245;SDS011;54412;51.206;6.888;2023-04-24T09:39:16;3.50;;;2.90;;
5245;SDS011;54412;51.206;6.888;2023-04-24T09:41:51;2.80;;;2.60;;
5245;SDS011;54412;51.206;6.888;2023-04-24T09:44:22;3.47;;;3.10;;
5245;SDS011;54412;51.206;6.888;2023-04-24T09:46:52;10.37;;;4.10;;
5245;SDS011;54412;51.206;6.888;2023-04-24T09:49:24;6.50;;;3.23;;
5245;SDS011;54412;51.206;6.888;2023-04-24T09:52:05;6.80;;;3.97;;
5245;SDS011;54412;51.206;6.888;2023-04-24T09:54:32;5.20;;;3.57;;
5245;SDS011;54412;51.206;6.888;2023-04-24T09:56:58;3.87;;;3.57;;
5245;SDS011;54412;51.206;6.888;2023-04-24T09:59:27;4.90;;;3.50;;
5245;SDS011;54412;51.206;6.888;2023-04-24T10:01:53;4.30;;;3.50;;
5245;SDS011;54412;51.206;6.888;2023-04-24T10:04:22;4.40;;;3.53;;
5245;SDS011;54412;51.206;6.888;2023-04-24T10:06:53;6.40;;;4.30;;
5245;SDS011;54412;51.206;6.888;2023-04-24T10:09:22;7.23;;;4.03;;
5245;SDS011;54412;51.206;6.888;2023-04-24T10:11:51;10.23;;;5.33;;
5245;SDS011;54412;51.206;6.888;2023-04-24T10:14:20;8.57;;;5.20;;
5245;SDS011;54412;51.206;6.888;2023-04-24T10:16:52;8.80;;;4.77;;
5245;SDS011;54412;51.206;6.888;2023-04-24T10:19:21;6.13;;;5.00;;
5245;SDS011;54412;51.206;6.888;2023-04-24T10:21:51;10.43;;;5.80;;
5245;SDS011;54412;51.206;6.888;2023-04-24T10:24:20;14.80;;;6.30;;
5245;SDS011;54412;51.206;6.888;2023-04-24T10:26:46;9.93;;;6.50;;
5245;SDS011;54412;51.206;6.888;2023-04-24T10:29:16;10.60;;;5.80;;
5245;SDS011;54412;51.206;6.888;2023-04-24T10:31:44;11.97;;;6.10;;
5245;SDS011;54412;51.206;6.888;2023-04-24T10:34:13;7.43;;;5.70;;
5245;SDS011;54412;51.206;6.888;2023-04-24T10:36:43;11.60;;;7.07;;
5245;SDS011;54412;51.206;6.888;2023-04-24T10:39:16;13.23;;;7.27;;
5245;SDS011;54412;51.206;6.888;2023-04-24T10:41:43;10.50;;;6.47;;
5245;SDS011;54412;51.206;6.888;2023-04-24T10:44:13;9.87;;;6.10;;
5245;SDS011;54412;51.206;6.888;2023-04-24T10:46:44;10.50;;;5.90;;
5245;SDS011;54412;51.206;6.888;2023-04-24T10:49:17;11.00;;;6.40;;
5245;SDS011;54412;51.206;6.888;2023-04-24T10:52:00;11.07;;;5.60;;
5245;SDS011;54412;51.206;6.888;2023-04-24T11:02:41;10.30;;;5.70;;
5245;SDS011;54412;51.206;6.888;2023-04-24T11:05:14;9.60;;;4.97;;
5245;SDS011;54412;51.206;6.888;2023-04-24T11:10:44;10.43;;;5.37;;
5245;SDS011;54412;51.206;6.888;2023-04-24T11:13:20;12.77;;;4.57;;
5245;SDS011;54412;51.206;6.888;2023-04-24T11:18:51;15.87;;;5.40;;
5245;SDS011;54412;51.206;6.888;2023-04-24T11:21:27;12.50;;;4.70;;
5245;SDS011;54412;51.206;6.888;2023-04-24T11:27:17;10.10;;;5.10;;
5245;SDS011;54412;51.206;6.888;2023-04-24T11:29:48;12.93;;;4.47;;
5245;SDS011;54412;51.206;6.888;2023-04-24T11:35:05;7.60;;;4.00;;
5245;SDS011;54412;51.206;6.888;2023-04-24T11:37:52;11.53;;;4.20;;
5245;SDS011;54412;51.206;6.888;2023-04-24T11:40:20;9.10;;;4.87;;
5245;SDS011;54412;51.206;6.888;2023-04-24T11:42:48;14.70;;;4.40;;
5245;SDS011;54412;51.206;6.888;2023-04-24T11:45:23;11.07;;;4.40;;
5245;SDS011;54412;51.206;6.888;2023-04-24T11:47:55;17.00;;;4.00;;
5245;SDS011;54412;51.206;6.888;2023-04-24T11:50:21;11.03;;;4.13;;
5245;SDS011;54412;51.206;6.888;2023-04-24T11:52:50;9.60;;;4.30;;
5245;SDS011;54412;51.206;6.888;2023-04-24T11:57:43;11.73;;;4.07;;
5245;SDS011;54412;51.206;6.888;2023-04-24T12:02:50;13.07;;;3.77;;
5245;SDS011;54412;51.206;6.888;2023-04-24T12:05:23;7.47;;;4.03;;
5245;SDS011;54412;51.206;6.888;2023-04-24T12:07:53;19.63;;;4.67;;
5245;SDS011;54412;51.206;6.888;2023-04-24T12:10:19;10.40;;;4.00;;
5245;SDS011;54412;51.206;6.888;2023-04-24T12:12:50;10.80;;;4.40;;
5245;SDS011;54412;51.206;6.888;2023-04-24T12:15:17;8.93;;;3.90;;
5245;SDS011;54412;51.206;6.888;2023-04-24T12:17:45;9.20;;;3.97;;
5245;SDS011;54412;51.206;6.888;2023-04-24T12:20:12;11.30;;;3.47;;
5245;SDS011;54412;51.206;6.888;2023-04-24T12:22:43;5.77;;;3.13;;
5245;SDS011;54412;51.206;6.888;2023-04-24T12:25:14;13.23;;;4.10;;
5245;SDS011;54412;51.206;6.888;2023-04-24T12:27:46;7.80;;;3.80;;
5245;SDS011;54412;51.206;6.888;2023-04-24T12:30:18;12.80;;;3.73;;
5245;SDS011;54412;51.206;6.888;2023-04-24T12:32:45;7.27;;;3.63;;
5245;SDS011;54412;51.206;6.888;2023-04-24T12:35:18;8.57;;;3.90;;
5245;SDS011;54412;51.206;6.888;2023-04-24T12:37:46;10.03;;;2.70;;
5245;SDS011;54412;51.206;6.888;2023-04-24T12:40:12;15.53;;;3.90;;
5245;SDS011;54412;51.206;6.888;2023-04-24T12:42:45;15.00;;;4.37;;
5245;SDS011;54412;51.206;6.888;2023-04-24T12:45:14;5.33;;;2.60;;
5245;SDS011;54412;51.206;6.888;2023-04-24T12:47:42;5.77;;;2.23;;
5245;SDS011;54412;51.206;6.888;2023-04-24T12:50:10;8.73;;;2.33;;
5245;SDS011;54412;51.206;6.888;2023-04-24T12:52:39;7.43;;;2.60;;
5245;SDS011;54412;51.206;6.888;2023-04-24T12:55:06;3.73;;;2.10;;
5245;SDS011;54412;51.206;6.888;2023-04-24T12:57:34;3.47;;;1.90;;
5245;SDS011;54412;51.206;6.888;2023-04-24T13:00:02;4.17;;;1.67;;
5245;SDS011;54412;51.206;6.888;2023-04-24T13:02:30;2.83;;;1.67;;
5245;SDS011;54412;51.206;6.888;2023-04-24T13:04:57;4.57;;;1.93;;
5245;SDS011;54412;51.206;6.888;2023-04-24T13:07:23;5.80;;;2.00;;
5245;SDS011;54412;51.206;6.888;2023-04-24T13:09:52;11.10;;;1.93;;
5245;SDS011;54412;51.206;6.888;2023-04-24T13:12:19;3.80;;;1.50;;
5245;SDS011;54412;51.206;6.888;2023-04-24T13:14:46;1.77;;;1.30;;
5245;SDS011;54412;51.206;6.888;2023-04-24T13:17:12;2.13;;;1.30;;
5245;SDS011;54412;51.206;6.888;2023-04-24T13:19:41;4.93;;;2.00;;
5245;SDS011;54412;51.206;6.888;2023-04-24T13:22:09;2.97;;;1.50;;
5245;SDS011;54412;51.206;6.888;2023-04-24T13:24:37;2.20;;;1.20;;
5245;SDS011;54412;51.206;6.888;2023-04-24T13:27:07;2.00;;;1.37;;
5245;SDS011;54412;51.206;6.888;2023-04-24T13:29:34;5.03;;;1.63;;
5245;SDS011;54412;51.206;6.888;2023-04-24T13:32:00;2.80;;;1.70;;
5245;SDS011;54412;51.206;6.888;2023-04-24T13:34:26;2.30;;;1.43;;
5245;SDS011;54412;51.206;6.888;2023-04-24T13:36:52;1.80;;;1.33;;
5245;SDS011;54412;51.206;6.888;2023-04-24T13:39:20;4.63;;;1.63;;
5245;SDS011;54412;51.206;6.888;2023-04-24T13:41:47;3.07;;;1.90;;
5245;SDS011;54412;51.206;6.888;2023-04-24T13:44:13;5.53;;;1.47;;
5245;SDS011;54412;51.206;6.888;2023-04-24T13:46:44;3.87;;;2.27;;
5245;SDS011;54412;51.206;6.888;2023-04-24T13:49:12;4.60;;;3.00;;
5245;SDS011;54412;51.206;6.888;2023-04-24T13:51:39;1.83;;;1.63;;
5245;SDS011;54412;51.206;6.888;2023-04-24T13:54:06;3.50;;;2.10;;
5245;SDS011;54412;51.206;6.888;2023-04-24T13:56:32;7.40;;;2.10;;
5245;SDS011;54412;51.206;6.888;2023-04-24T13:58:57;1.67;;;1.57;;
5245;SDS011;54412;51.206;6.888;2023-04-24T14:01:23;5.10;;;2.40;;
5245;SDS011;54412;51.206;6.888;2023-04-24T14:03:53;4.40;;;1.70;;
5245;SDS011;54412;51.206;6.888;2023-04-24T14:06:20;12.07;;;1.70;;
5245;SDS011;54412;51.206;6.888;2023-04-24T14:08:47;4.87;;;1.83;;
5245;SDS011;54412;51.206;6.888;2023-04-24T14:11:13;7.80;;;2.10;;
5245;SDS011;54412;51.206;6.888;2023-04-24T14:13:40;3.33;;;1.80;;
5245;SDS011;54412;51.206;6.888;2023-04-24T14:16:07;4.40;;;1.77;;
5245;SDS011;54412;51.206;6.888;2023-04-24T14:18:33;6.27;;;2.30;;
5245;SDS011;54412;51.206;6.888;2023-04-24T14:20:59;2.00;;;1.37;;
5245;SDS011;54412;51.206;6.888;2023-04-24T14:23:26;5.13;;;1.50;;
5245;SDS011;54412;51.206;6.888;2023-04-24T14:25:52;2.70;;;1.73;;
5245;SDS011;54412;51.206;6.888;2023-04-24T14:28:18;2.80;;;1.57;;
5245;SDS011;54412;51.206;6.888;2023-04-24T14:30:46;1.90;;;1.60;;
5245;SDS011;54412;51.206;6.888;2023-04-24T14:33:13;4.27;;;1.47;;
5245;SDS011;54412;51.206;6.888;2023-04-24T14:35:40;8.43;;;2.23;;
5245;SDS011;54412;51.206;6.888;2023-04-24T14:38:07;7.60;;;1.40;;
5245;SDS011;54412;51.206;6.888;2023-04-24T14:40:33;1.63;;;1.27;;
5245;SDS011;54412;51.206;6.888;2023-04-24T14:43:00;5.40;;;1.27;;
5245;SDS011;54412;51.206;6.888;2023-04-24T14:45:26;2.80;;;1.23;;
5245;SDS011;54412;51.206;6.888;2023-04-24T14:47:52;1.73;;;1.30;;
5245;SDS011;54412;51.206;6.888;2023-04-24T14:50:18;2.10;;;1.20;;
5245;SDS011;54412;51.206;6.888;2023-04-24T14:52:44;3.13;;;0.90;;
5245;SDS011;54412;51.206;6.888;2023-04-24T14:55:10;4.43;;;1.33;;
5245;SDS011;54412;51.206;6.888;2023-04-24T14:57:35;1.67;;;1.37;;
5245;SDS011;54412;51.206;6.888;2023-04-24T15:00:05;1.07;;;1.00;;
5245;SDS011;54412;51.206;6.888;2023-04-24T15:02:34;6.63;;;1.23;;
5245;SDS011;54412;51.206;6.888;2023-04-24T15:05:01;3.07;;;1.20;;
5245;SDS011;54412;51.206;6.888;2023-04-24T15:07:29;1.37;;;1.10;;
5245;SDS011;54412;51.206;6.888;2023-04-24T15:09:54;1.67;;;1.27;;
5245;SDS011;54412;51.206;6.888;2023-04-24T15:12:21;2.60;;;1.73;;
5245;SDS011;54412;51.206;6.888;2023-04-24T15:14:47;2.97;;;1.87;;
5245;SDS011;54412;51.206;6.888;2023-04-24T15:17:12;4.40;;;1.47;;
5245;SDS011;54412;51.206;6.888;2023-04-24T15:19:38;1.63;;;1.20;;
5245;SDS011;54412;51.206;6.888;2023-04-24T15:22:04;2.27;;;1.33;;